sensor_id;sensor_type;location;lat;lon;timestamp;pressure;altitude;pressure_sealevel;temperature;humidity
55373;BME280;70018;47.838;16.490;2024-03-02T00:01:15;98596.94;;;5.96;100.00
55373;BME280;70018;47.838;16.490;2024-03-02T00:03:42;98587.97;;;5.96;100.00
55373;BME280;70018;47.838;16.490;2024-03-02T00:06:10;98588.31;;;5.94;100.00
55373;BME280;70018;47.838;16.490;2024-03-02T00:08:37;98586.81;;;5.97;100.00
55373;BME280;70018;47.838;16.490;2024-03-02T00:11:04;98592.28;;;5.97;100.00
55373;BME280;70018;47.838;16.490;2024-03-02T00:13:31;98578.28;;;5.98;100.00
55373;BME280;70018;47.838;16.490;2024-03-02T00:15:58;98577.56;;;6.01;100.00
55373;BME280;70018;47.838;16.490;2024-03-02T00:18:33;98570.94;;;6.02;100.00
55373;BME280;70018;47.838;16.490;2024-03-02T00:21:01;98573.31;;;6.04;100.00
55373;BME280;70018;47.838;16.490;2024-03-02T00:23:33;98569.56;;;6.08;100.00
55373;BME280;70018;47.838;16.490;2024-03-02T00:26:01;98567.31;;;6.14;100.00
55373;BME280;70018;47.838;16.490;2024-03-02T00:28:33;98568.56;;;6.16;100.00
55373;BME280;70018;47.838;16.490;2024-03-02T00:31:07;98557.28;;;6.18;100.00
55373;BME280;70018;47.838;16.490;2024-03-02T00:33:35;98562.75;;;6.18;100.00
55373;BME280;70018;47.838;16.490;2024-03-02T00:36:03;98564.75;;;6.21;100.00
55373;BME280;70018;47.838;16.490;2024-03-02T00:38:31;98558.00;;;6.15;100.00
55373;BME280;70018;47.838;16.490;2024-03-02T00:40:59;98557.28;;;6.18;100.00
55373;BME280;70018;47.838;16.490;2024-03-02T00:43:43;98559.13;;;6.14;100.00
55373;BME280;70018;47.838;16.490;2024-03-02T00:46:17;98558.25;;;6.10;100.00
55373;BME280;70018;47.838;16.490;2024-03-02T00:48:59;98562.16;;;5.93;100.00
55373;BME280;70018;47.838;16.490;2024-03-02T00:51:29;98574.16;;;5.76;100.00
55373;BME280;70018;47.838;16.490;2024-03-02T00:53:58;98567.72;;;5.69;100.00
55373;BME280;70018;47.838;16.490;2024-03-02T00:56:25;98569.22;;;5.82;100.00
55373;BME280;70018;47.838;16.490;2024-03-02T00:58:53;98576.50;;;5.90;100.00
55373;BME280;70018;47.838;16.490;2024-03-02T01:01:20;98564.41;;;5.91;100.00
55373;BME280;70018;47.838;16.490;2024-03-02T01:03:47;98563.28;;;5.92;100.00
55373;BME280;70018;47.838;16.490;2024-03-02T01:06:14;98557.19;;;5.99;100.00
55373;BME280;70018;47.838;16.490;2024-03-02T01:08:41;98564.16;;;5.96;100.00
55373;BME280;70018;47.838;16.490;2024-03-02T01:11:08;98563.38;;;5.96;100.00
55373;BME280;70018;47.838;16.490;2024-03-02T01:13:35;98573.06;;;5.93;100.00
55373;BME280;70018;47.838;16.490;2024-03-02T01:16:02;98578.06;;;5.91;100.00
55373;BME280;70018;47.838;16.490;2024-03-02T01:18:29;98565.75;;;5.97;100.00
55373;BME280;70018;47.838;16.490;2024-03-02T01:20:56;98565.75;;;5.97;100.00
55373;BME280;70018;47.838;16.490;2024-03-02T01:23:23;98566.53;;;5.98;100.00
55373;BME280;70018;47.838;16.490;2024-03-02T01:25:51;98572.00;;;5.98;100.00
55373;BME280;70018;47.838;16.490;2024-03-02T01:28:18;98568.84;;;5.96;100.00
55373;BME280;70018;47.838;16.490;2024-03-02T01:30:45;98567.34;;;5.98;100.00
55373;BME280;70018;47.838;16.490;2024-03-02T01:33:12;98569.72;;;6.00;100.00
55373;BME280;70018;47.838;16.490;2024-03-02T01:35:39;98567.78;;;6.00;100.00
55373;BME280;70018;47.838;16.490;2024-03-02T01:38:06;98565.75;;;5.97;100.00
55373;BME280;70018;47.838;16.490;2024-03-02T01:40:34;98562.84;;;5.90;100.00
55373;BME280;70018;47.838;16.490;2024-03-02T01:43:01;98558.44;;;5.86;100.00
55373;BME280;70018;47.838;16.490;2024-03-02T01:45:29;98559.44;;;5.81;100.00
55373;BME280;70018;47.838;16.490;2024-03-02T01:47:56;98561.41;;;5.80;100.00
55373;BME280;70018;47.838;16.490;2024-03-02T01:50:29;98565.69;;;5.81;100.00
55373;BME280;70018;47.838;16.490;2024-03-02T01:52:58;98554.44;;;5.83;100.00
55373;BME280;70018;47.838;16.490;2024-03-02T01:55:25;98556.94;;;5.88;100.00
55373;BME280;70018;47.838;16.490;2024-03-02T01:57:52;98563.53;;;5.87;100.00
55373;BME280;70018;47.838;16.490;2024-03-02T02:00:22;98556.69;;;5.81;100.00
55373;BME280;70018;47.838;16.490;2024-03-02T02:02:51;98556.97;;;5.76;100.00
55373;BME280;70018;47.838;16.490;2024-03-02T02:05:18;98553.53;;;5.79;100.00
55373;BME280;70018;47.838;16.490;2024-03-02T02:07:45;98548.50;;;5.81;100.00
55373;BME280;70018;47.838;16.490;2024-03-02T02:10:12;98540.25;;;5.77;100.00
55373;BME280;70018;47.838;16.490;2024-03-02T02:12:39;98542.78;;;5.70;100.00
55373;BME280;70018;47.838;16.490;2024-03-02T02:15:42;98548.94;;;5.67;100.00
55373;BME280;70018;47.838;16.490;2024-03-02T02:18:08;98536.69;;;5.61;100.00
55373;BME280;70018;47.838;16.490;2024-03-02T02:20:35;98527.19;;;5.55;100.00
55373;BME280;70018;47.838;16.490;2024-03-02T02:23:03;98526.38;;;5.55;100.00
55373;BME280;70018;47.838;16.490;2024-03-02T02:25:30;98530.44;;;5.61;100.00
55373;BME280;70018;47.838;16.490;2024-03-02T02:27:57;98536.69;;;5.61;100.00
55373;BME280;70018;47.838;16.490;2024-03-02T02:30:27;98537.72;;;5.57;100.00
55373;BME280;70018;47.838;16.490;2024-03-02T02:32:55;98543.25;;;5.45;100.00
55373;BME280;70018;47.838;16.490;2024-03-02T02:35:21;98528.28;;;5.39;100.00
55373;BME280;70018;47.838;16.490;2024-03-02T02:37:49;98535.50;;;5.47;100.00
55373;BME280;70018;47.838;16.490;2024-03-02T02:40:16;98525.94;;;5.53;100.00
55373;BME280;70018;47.838;16.490;2024-03-02T02:42:45;98521.53;;;5.48;100.00
55373;BME280;70018;47.838;16.490;2024-03-02T02:45:12;98517.09;;;5.44;100.00
55373;BME280;70018;47.838;16.490;2024-03-02T02:47:41;98512.09;;;5.46;100.00
55373;BME280;70018;47.838;16.490;2024-03-02T02:50:09;98516.16;;;5.52;100.00
55373;BME280;70018;47.838;16.490;2024-03-02T02:52:38;98507.50;;;5.50;100.00
55373;BME280;70018;47.838;16.490;2024-03-02T02:55:10;98517.31;;;5.51;100.00
55373;BME280;70018;47.838;16.490;2024-03-02T02:57:38;98518.97;;;5.55;100.00
55373;BME280;70018;47.838;16.490;2024-03-02T03:00:10;98517.31;;;5.51;100.00
55373;BME280;70018;47.838;16.490;2024-03-02T03:02:41;98508.91;;;5.44;100.00
55373;BME280;70018;47.838;16.490;2024-03-02T03:05:10;98513.06;;;5.38;100.00
55373;BME280;70018;47.838;16.490;2024-03-02T03:07:37;98511.44;;;5.37;100.00
55373;BME280;70018;47.838;16.490;2024-03-02T03:10:04;98507.16;;;5.36;100.00
55373;BME280;70018;47.838;16.490;2024-03-02T03:12:33;98513.19;;;5.29;100.00
55373;BME280;70018;47.838;16.490;2024-03-02T03:15:01;98516.09;;;5.20;100.00
55373;BME280;70018;47.838;16.490;2024-03-02T03:17:27;98518.16;;;5.11;100.00
55373;BME280;70018;47.838;16.490;2024-03-02T03:19:55;98533.03;;;5.14;100.00
55373;BME280;70018;47.838;16.490;2024-03-02T03:22:21;98527.69;;;5.17;100.00
55373;BME280;70018;47.838;16.490;2024-03-02T03:24:48;98539.59;;;5.25;100.00
55373;BME280;70018;47.838;16.490;2024-03-02T03:27:15;98535.94;;;5.33;100.00
55373;BME280;70018;47.838;16.490;2024-03-02T03:29:41;98533.16;;;5.45;100.00
55373;BME280;70018;47.838;16.490;2024-03-02T03:32:08;98533.69;;;5.51;100.00
55373;BME280;70018;47.838;16.490;2024-03-02T03:34:35;98539.34;;;5.58;100.00
55373;BME280;70018;47.838;16.490;2024-03-02T03:37:02;98536.78;;;5.65;100.00
55373;BME280;70018;47.838;16.490;2024-03-02T03:39:29;98541.56;;;5.68;100.00
55373;BME280;70018;47.838;16.490;2024-03-02T03:41:56;98527.00;;;5.64;100.00
55373;BME280;70018;47.838;16.490;2024-03-02T03:44:22;98529.53;;;5.57;100.00
55373;BME280;70018;47.838;16.490;2024-03-02T03:46:49;98522.66;;;5.47;100.00
55373;BME280;70018;47.838;16.490;2024-03-02T03:49:16;98521.69;;;5.40;100.00
55373;BME280;70018;47.838;16.490;2024-03-02T03:51:43;98517.97;;;5.32;100.00
55373;BME280;70018;47.838;16.490;2024-03-02T03:54:10;98517.66;;;5.21;100.00
55373;BME280;70018;47.838;16.490;2024-03-02T03:56:38;98522.13;;;5.14;100.00
55373;BME280;70018;47.838;16.490;2024-03-02T03:59:04;98522.53;;;5.00;100.00
55373;BME280;70018;47.838;16.490;2024-03-02T04:01:31;98526.69;;;4.82;100.00
55373;BME280;70018;47.838;16.490;2024-03-02T04:03:58;98530.56;;;4.69;100.00
55373;BME280;70018;47.838;16.490;2024-03-02T04:06:25;98532.22;;;4.58;100.00
55373;BME280;70018;47.838;16.490;2024-03-02T04:08:52;98541.97;;;4.47;100.00
55373;BME280;70018;47.838;16.490;2024-03-02T04:11:18;98545.16;;;4.37;100.00
55373;BME280;70018;47.838;16.490;2024-03-02T04:13:45;98547.91;;;4.37;100.00
55373;BME280;70018;47.838;16.490;2024-03-02T04:16:12;98543.59;;;4.36;100.00
55373;BME280;70018;47.838;16.490;2024-03-02T04:18:38;98547.34;;;4.43;100.00
55373;BME280;70018;47.838;16.490;2024-03-02T04:21:06;98549.84;;;4.48;100.00
55373;BME280;70018;47.838;16.490;2024-03-02T04:23:32;98546.97;;;4.45;100.00
55373;BME280;70018;47.838;16.490;2024-03-02T04:25:59;98546.97;;;4.45;100.00
55373;BME280;70018;47.838;16.490;2024-03-02T04:28:26;98559.03;;;4.56;100.00
55373;BME280;70018;47.838;16.490;2024-03-02T04:30:52;98552.63;;;4.64;100.00
55373;BME280;70018;47.838;16.490;2024-03-02T04:33:19;98557.59;;;4.74;100.00
55373;BME280;70018;47.838;16.490;2024-03-02T04:35:46;98550.78;;;4.80;100.00
55373;BME280;70018;47.838;16.490;2024-03-02T04:38:13;98555.56;;;4.83;100.00
55373;BME280;70018;47.838;16.490;2024-03-02T04:40:39;98563.28;;;4.81;100.00
55373;BME280;70018;47.838;16.490;2024-03-02T04:43:06;98561.00;;;4.83;100.00
55373;BME280;70018;47.838;16.490;2024-03-02T04:45:38;98564.19;;;4.85;100.00
55373;BME280;70018;47.838;16.490;2024-03-02T04:48:05;98551.78;;;4.88;100.00
55373;BME280;70018;47.838;16.490;2024-03-02T04:50:32;98561.09;;;4.87;100.00
55373;BME280;70018;47.838;16.490;2024-03-02T04:52:59;98565.06;;;4.89;100.00
55373;BME280;70018;47.838;16.490;2024-03-02T04:55:25;98572.56;;;4.92;100.00
55373;BME280;70018;47.838;16.490;2024-03-02T04:57:55;98570.75;;;4.96;100.00
55373;BME280;70018;47.838;16.490;2024-03-02T05:00:22;98571.22;;;4.98;100.00
55373;BME280;70018;47.838;16.490;2024-03-02T05:02:49;98574.03;;;5.02;100.00
55373;BME280;70018;47.838;16.490;2024-03-02T05:05:17;98572.66;;;5.08;100.00
55373;BME280;70018;47.838;16.490;2024-03-02T05:07:44;98571.16;;;5.10;100.00
55373;BME280;70018;47.838;16.490;2024-03-02T05:10:11;98570.38;;;5.10;100.00
55373;BME280;70018;47.838;16.490;2024-03-02T05:12:41;98578.91;;;5.08;100.00
55373;BME280;70018;47.838;16.490;2024-03-02T05:15:13;98594.56;;;5.11;100.00
55373;BME280;70018;47.838;16.490;2024-03-02T05:17:42;98600.50;;;5.13;100.00
55373;BME280;70018;47.838;16.490;2024-03-02T05:20:12;98583.31;;;5.13;100.00
55373;BME280;70018;47.838;16.490;2024-03-02T05:22:39;98596.63;;;5.14;100.00
55373;BME280;70018;47.838;16.490;2024-03-02T05:25:07;98597.78;;;5.13;100.00
55373;BME280;70018;47.838;16.490;2024-03-02T05:27:34;98598.91;;;5.12;100.00
55373;BME280;70018;47.838;16.490;2024-03-02T05:30:01;98604.47;;;5.16;100.00
55373;BME280;70018;47.838;16.490;2024-03-02T05:32:27;98594.69;;;5.15;100.00
55373;BME280;70018;47.838;16.490;2024-03-02T05:34:54;98605.69;;;5.18;100.00
55373;BME280;70018;47.838;16.490;2024-03-02T05:37:21;98612.06;;;5.22;100.00
55373;BME280;70018;47.838;16.490;2024-03-02T05:39:48;98619.22;;;5.27;100.00
55373;BME280;70018;47.838;16.490;2024-03-02T05:42:15;98617.59;;;5.26;100.00
55373;BME280;70018;47.838;16.490;2024-03-02T05:44:43;98614.53;;;5.28;100.00
55373;BME280;70018;47.838;16.490;2024-03-02T05:47:10;98608.19;;;5.23;100.00
55373;BME280;70018;47.838;16.490;2024-03-02T05:49:36;98612.38;;;5.21;100.00
55373;BME280;70018;47.838;16.490;2024-03-02T05:52:03;98615.38;;;5.16;100.00
55373;BME280;70018;47.838;16.490;2024-03-02T05:54:30;98620.28;;;5.10;100.00
55373;BME280;70018;47.838;16.490;2024-03-02T05:56:56;98625.38;;;5.12;100.00
55373;BME280;70018;47.838;16.490;2024-03-02T05:59:23;98636.06;;;5.17;100.00
55373;BME280;70018;47.838;16.490;2024-03-02T06:01:50;98634.38;;;5.12;100.00
55373;BME280;70018;47.838;16.490;2024-03-02T06:04:19;98636.91;;;5.05;100.00
55373;BME280;70018;47.838;16.490;2024-03-02T06:06:46;98636.78;;;5.02;100.00
55373;BME280;70018;47.838;16.490;2024-03-02T06:09:13;98640.44;;;5.06;100.00
55373;BME280;70018;47.838;16.490;2024-03-02T06:11:40;98635.75;;;5.06;100.00
55373;BME280;70018;47.838;16.490;2024-03-02T06:14:08;98628.03;;;5.08;100.00
55373;BME280;70018;47.838;16.490;2024-03-02T06:16:35;98637.47;;;5.11;100.00
55373;BME280;70018;47.838;16.490;2024-03-02T06:19:02;98629.03;;;5.16;100.00
55373;BME280;70018;47.838;16.490;2024-03-02T06:21:29;98620.38;;;5.14;100.00
55373;BME280;70018;47.838;16.490;2024-03-02T06:23:56;98622.06;;;5.18;100.00
55373;BME280;70018;47.838;16.490;2024-03-02T06:26:23;98616.72;;;5.22;100.00
55373;BME280;70018;47.838;16.490;2024-03-02T06:28:52;98625.47;;;5.28;100.00
55373;BME280;70018;47.838;16.490;2024-03-02T06:31:18;98627.97;;;5.33;100.00
55373;BME280;70018;47.838;16.490;2024-03-02T06:33:45;98627.28;;;5.36;100.00
55373;BME280;70018;47.838;16.490;2024-03-02T06:36:12;98636.34;;;5.40;100.00
55373;BME280;70018;47.838;16.490;2024-03-02T06:38:39;98640.75;;;5.44;100.00
55373;BME280;70018;47.838;16.490;2024-03-02T06:41:09;98644.94;;;5.54;100.00
55373;BME280;70018;47.838;16.490;2024-03-02T06:43:36;98660.81;;;5.64;100.00
55373;BME280;70018;47.838;16.490;2024-03-02T06:46:03;98650.81;;;5.68;100.00
55373;BME280;70018;47.838;16.490;2024-03-02T06:48:31;98654.56;;;5.63;100.00
55373;BME280;70018;47.838;16.490;2024-03-02T06:51:00;98652.88;;;5.59;100.00
55373;BME280;70018;47.838;16.490;2024-03-02T06:53:27;98646.03;;;5.65;100.00
55373;BME280;70018;47.838;16.490;2024-03-02T06:55:54;98647.81;;;5.73;100.00
55373;BME280;70018;47.838;16.490;2024-03-02T06:58:21;98657.16;;;5.72;100.00
55373;BME280;70018;47.838;16.490;2024-03-02T07:00:48;98658.66;;;5.69;100.00
55373;BME280;70018;47.838;16.490;2024-03-02T07:03:14;98661.75;;;5.68;100.00
55373;BME280;70018;47.838;16.490;2024-03-02T07:05:41;98669.94;;;5.68;100.00
55373;BME280;70018;47.838;16.490;2024-03-02T07:08:08;98664.22;;;5.73;100.00
55373;BME280;70018;47.838;16.490;2024-03-02T07:10:35;98668.97;;;5.76;100.00
55373;BME280;70018;47.838;16.490;2024-03-02T07:13:01;98668.28;;;5.79;100.00
55373;BME280;70018;47.838;16.490;2024-03-02T07:15:28;98670.09;;;5.87;100.00
55373;BME280;70018;47.838;16.490;2024-03-02T07:17:55;98675.75;;;5.94;100.00
55373;BME280;70018;47.838;16.490;2024-03-02T07:20:22;98680.28;;;6.02;100.00
55373;BME280;70018;47.838;16.490;2024-03-02T07:22:49;98681.63;;;6.08;100.00
55373;BME280;70018;47.838;16.490;2024-03-02T07:25:16;98682.50;;;6.12;100.00
55373;BME280;70018;47.838;16.490;2024-03-02T07:27:45;98688.75;;;6.13;100.00
55373;BME280;70018;47.838;16.490;2024-03-02T07:30:15;98669.28;;;6.14;100.00
55373;BME280;70018;47.838;16.490;2024-03-02T07:32:45;98667.94;;;6.24;100.00
55373;BME280;70018;47.838;16.490;2024-03-02T07:35:12;98669.84;;;6.35;100.00
55373;BME280;70018;47.838;16.490;2024-03-02T07:37:43;98668.16;;;6.46;100.00
55373;BME280;70018;47.838;16.490;2024-03-02T07:40:10;98667.44;;;6.49;100.00
55373;BME280;70018;47.838;16.490;2024-03-02T07:42:40;98664.09;;;6.56;100.00
55373;BME280;70018;47.838;16.490;2024-03-02T07:45:07;98664.63;;;6.62;100.00
55373;BME280;70018;47.838;16.490;2024-03-02T07:47:35;98669.81;;;6.67;100.00
55373;BME280;70018;47.838;16.490;2024-03-02T07:50:02;98672.66;;;6.70;100.00
55373;BME280;70018;47.838;16.490;2024-03-02T07:52:32;98672.66;;;6.70;100.00
55373;BME280;70018;47.838;16.490;2024-03-02T07:54:59;98670.41;;;6.76;100.00
55373;BME280;70018;47.838;16.490;2024-03-02T07:57:26;98679.16;;;6.81;100.00
55373;BME280;70018;47.838;16.490;2024-03-02T07:59:53;98691.50;;;6.91;100.00
55373;BME280;70018;47.838;16.490;2024-03-02T08:02:20;98679.53;;;6.95;100.00
55373;BME280;70018;47.838;16.490;2024-03-02T08:04:47;98679.31;;;7.04;100.00
55373;BME280;70018;47.838;16.490;2024-03-02T08:07:13;98676.94;;;7.02;100.00
55373;BME280;70018;47.838;16.490;2024-03-02T08:09:40;98678.31;;;7.12;100.00
55373;BME280;70018;47.838;16.490;2024-03-02T08:12:07;98676.44;;;7.16;100.00
55373;BME280;70018;47.838;16.490;2024-03-02T08:14:33;98673.44;;;7.21;100.00
55373;BME280;70018;47.838;16.490;2024-03-02T08:17:00;98673.16;;;7.26;100.00
55373;BME280;70018;47.838;16.490;2024-03-02T08:19:28;98668.19;;;7.32;100.00
55373;BME280;70018;47.838;16.490;2024-03-02T08:21:55;98664.09;;;7.41;100.00
55373;BME280;70018;47.838;16.490;2024-03-02T08:24:21;98667.00;;;7.48;100.00
55373;BME280;70018;47.838;16.490;2024-03-02T08:26:48;98666.34;;;7.55;100.00
55373;BME280;70018;47.838;16.490;2024-03-02T08:29:15;98672.28;;;7.57;100.00
55373;BME280;70018;47.838;16.490;2024-03-02T08:31:42;98667.78;;;7.49;100.00
55373;BME280;70018;47.838;16.490;2024-03-02T08:34:08;98657.19;;;7.66;100.00
55373;BME280;70018;47.838;16.490;2024-03-02T08:36:36;98665.97;;;7.75;100.00
55373;BME280;70018;47.838;16.490;2024-03-02T08:39:03;98658.94;;;7.74;100.00
55373;BME280;70018;47.838;16.490;2024-03-02T08:41:29;98660.31;;;7.65;100.00
55373;BME280;70018;47.838;16.490;2024-03-02T08:43:56;98661.16;;;7.69;100.00
55373;BME280;70018;47.838;16.490;2024-03-02T08:46:23;98655.91;;;7.79;100.00
55373;BME280;70018;47.838;16.490;2024-03-02T08:48:50;98660.50;;;7.95;100.00
55373;BME280;70018;47.838;16.490;2024-03-02T08:51:16;98657.31;;;8.12;100.00
55373;BME280;70018;47.838;16.490;2024-03-02T08:53:43;98659.84;;;8.43;100.00
55373;BME280;70018;47.838;16.490;2024-03-02T08:56:10;98662.22;;;8.67;100.00
55373;BME280;70018;47.838;16.490;2024-03-02T08:58:37;98659.31;;;8.83;100.00
55373;BME280;70018;47.838;16.490;2024-03-02T09:01:03;98656.25;;;8.88;99.11
55373;BME280;70018;47.838;16.490;2024-03-02T09:03:30;98651.00;;;9.02;99.33
55373;BME280;70018;47.838;16.490;2024-03-02T09:05:59;98652.50;;;9.26;98.23
55373;BME280;70018;47.838;16.490;2024-03-02T09:08:26;98645.31;;;9.44;98.48
55373;BME280;70018;47.838;16.490;2024-03-02T09:10:53;98648.63;;;9.60;97.67
55373;BME280;70018;47.838;16.490;2024-03-02T09:13:20;98657.41;;;9.69;97.31
55373;BME280;70018;47.838;16.490;2024-03-02T09:15:46;98656.16;;;9.96;96.79
55373;BME280;70018;47.838;16.490;2024-03-02T09:18:13;98654.63;;;9.99;96.13
55373;BME280;70018;47.838;16.490;2024-03-02T09:20:40;98661.13;;;9.87;94.80
55373;BME280;70018;47.838;16.490;2024-03-02T09:23:07;98659.03;;;9.73;95.01
55373;BME280;70018;47.838;16.490;2024-03-02T09:25:33;98662.81;;;9.62;95.23
55373;BME280;70018;47.838;16.490;2024-03-02T09:28:00;98660.25;;;9.46;94.96
55373;BME280;70018;47.838;16.490;2024-03-02T09:30:27;98661.78;;;9.44;95.32
55373;BME280;70018;47.838;16.490;2024-03-02T09:32:54;98652.75;;;9.43;95.24
55373;BME280;70018;47.838;16.490;2024-03-02T09:35:41;98658.97;;;9.37;95.15
55373;BME280;70018;47.838;16.490;2024-03-02T09:38:07;98664.34;;;9.30;95.07
55373;BME280;70018;47.838;16.490;2024-03-02T09:40:34;98662.44;;;9.34;94.24
55373;BME280;70018;47.838;16.490;2024-03-02T09:43:01;98654.59;;;9.32;94.38
55373;BME280;70018;47.838;16.490;2024-03-02T09:45:29;98652.34;;;9.41;93.92
55373;BME280;70018;47.838;16.490;2024-03-02T09:47:56;98645.41;;;9.51;93.93
55373;BME280;70018;47.838;16.490;2024-03-02T09:50:23;98649.09;;;9.62;93.45
55373;BME280;70018;47.838;16.490;2024-03-02T09:52:50;98658.31;;;9.80;93.20
55373;BME280;70018;47.838;16.490;2024-03-02T09:55:17;98649.25;;;9.76;92.59
55373;BME280;70018;47.838;16.490;2024-03-02T09:57:46;98654.13;;;9.60;92.01
55373;BME280;70018;47.838;16.490;2024-03-02T10:00:15;98657.22;;;9.55;92.17
55373;BME280;70018;47.838;16.490;2024-03-02T10:02:42;98655.66;;;9.54;92.28
55373;BME280;70018;47.838;16.490;2024-03-02T10:05:09;98659.56;;;9.53;92.32
55373;BME280;70018;47.838;16.490;2024-03-02T10:07:36;98653.41;;;9.63;92.28
55373;BME280;70018;47.838;16.490;2024-03-02T10:10:14;98650.31;;;9.68;91.61
55373;BME280;70018;47.838;16.490;2024-03-02T10:12:41;98649.50;;;9.64;90.99
55373;BME280;70018;47.838;16.490;2024-03-02T10:15:08;98645.66;;;9.72;90.89
55373;BME280;70018;47.838;16.490;2024-03-02T10:17:36;98669.22;;;9.73;90.70
55373;BME280;70018;47.838;16.490;2024-03-02T10:20:24;98649.81;;;9.92;90.52
55373;BME280;70018;47.838;16.490;2024-03-02T10:22:52;98650.00;;;10.06;90.07
55373;BME280;70018;47.838;16.490;2024-03-02T10:25:31;98648.16;;;10.17;89.06
55373;BME280;70018;47.838;16.490;2024-03-02T10:28:16;98647.84;;;10.26;88.56
55373;BME280;70018;47.838;16.490;2024-03-02T10:30:43;98655.50;;;10.43;87.49
55373;BME280;70018;47.838;16.490;2024-03-02T10:33:09;98653.66;;;10.58;87.69
55373;BME280;70018;47.838;16.490;2024-03-02T10:35:38;98651.72;;;11.09;86.14
55373;BME280;70018;47.838;16.490;2024-03-02T10:38:05;98656.03;;;11.07;84.74
55373;BME280;70018;47.838;16.490;2024-03-02T10:40:33;98649.44;;;11.25;84.63
55373;BME280;70018;47.838;16.490;2024-03-02T10:43:01;98650.16;;;11.15;83.90
55373;BME280;70018;47.838;16.490;2024-03-02T10:45:30;98654.09;;;11.14;83.33
55373;BME280;70018;47.838;16.490;2024-03-02T10:47:57;98659.66;;;11.25;84.39
55373;BME280;70018;47.838;16.490;2024-03-02T10:50:24;98655.91;;;11.54;82.79
55373;BME280;70018;47.838;16.490;2024-03-02T10:52:51;98648.41;;;11.51;82.01
55373;BME280;70018;47.838;16.490;2024-03-02T10:55:18;98644.19;;;11.75;82.27
55373;BME280;70018;47.838;16.490;2024-03-02T10:57:53;98646.22;;;11.92;81.50
55373;BME280;70018;47.838;16.490;2024-03-02T11:00:21;98650.69;;;11.38;81.53
55373;BME280;70018;47.838;16.490;2024-03-02T11:02:59;98648.06;;;10.98;82.11
55373;BME280;70018;47.838;16.490;2024-03-02T11:05:31;98653.72;;;10.65;82.55
55373;BME280;70018;47.838;16.490;2024-03-02T11:08:02;98645.63;;;10.39;83.88
55373;BME280;70018;47.838;16.490;2024-03-02T11:10:49;98653.94;;;10.09;85.20
55373;BME280;70018;47.838;16.490;2024-03-02T11:13:22;98649.78;;;9.89;85.84
55373;BME280;70018;47.838;16.490;2024-03-02T11:15:55;98644.22;;;9.85;86.84
55373;BME280;70018;47.838;16.490;2024-03-02T11:18:25;98639.59;;;9.89;86.68
55373;BME280;70018;47.838;16.490;2024-03-02T11:20:53;98640.88;;;10.02;87.05
55373;BME280;70018;47.838;16.490;2024-03-02T11:23:32;98642.09;;;10.05;86.54
55373;BME280;70018;47.838;16.490;2024-03-02T11:28:45;98645.63;;;10.05;87.05
55373;BME280;70018;47.838;16.490;2024-03-02T11:31:12;98633.88;;;10.08;86.98
55373;BME280;70018;47.838;16.490;2024-03-02T11:33:39;98631.13;;;10.08;87.23
55373;BME280;70018;47.838;16.490;2024-03-02T11:36:07;98627.78;;;9.89;87.88
55373;BME280;70018;47.838;16.490;2024-03-02T11:38:36;98632.34;;;9.74;88.06
55373;BME280;70018;47.838;16.490;2024-03-02T11:41:06;98629.06;;;9.65;88.10
55373;BME280;70018;47.838;16.490;2024-03-02T11:43:38;98634.41;;;9.51;89.70
55373;BME280;70018;47.838;16.490;2024-03-02T11:46:08;98635.47;;;9.43;89.66
55373;BME280;70018;47.838;16.490;2024-03-02T11:48:36;98635.88;;;9.45;90.20
55373;BME280;70018;47.838;16.490;2024-03-02T11:51:04;98642.25;;;9.52;90.24
55373;BME280;70018;47.838;16.490;2024-03-02T11:53:31;98637.97;;;9.55;89.61
55373;BME280;70018;47.838;16.490;2024-03-02T11:56:02;98633.31;;;9.59;89.69
55373;BME280;70018;47.838;16.490;2024-03-02T11:58:30;98635.22;;;9.55;89.97
55373;BME280;70018;47.838;16.490;2024-03-02T12:00:57;98636.72;;;9.49;90.12
55373;BME280;70018;47.838;16.490;2024-03-02T12:03:25;98635.88;;;9.45;90.67
55373;BME280;70018;47.838;16.490;2024-03-02T12:05:53;98633.59;;;9.50;90.82
55373;BME280;70018;47.838;16.490;2024-03-02T12:08:21;98628.97;;;9.58;89.73
55373;BME280;70018;47.838;16.490;2024-03-02T12:11:01;98625.16;;;9.66;90.42
55373;BME280;70018;47.838;16.490;2024-03-02T12:13:30;98635.09;;;9.74;90.47
55373;BME280;70018;47.838;16.490;2024-03-02T12:15:57;98631.19;;;9.79;90.28
55373;BME280;70018;47.838;16.490;2024-03-02T12:18:25;98627.81;;;9.92;90.16
55373;BME280;70018;47.838;16.490;2024-03-02T12:20:53;98624.47;;;10.09;89.49
55373;BME280;70018;47.838;16.490;2024-03-02T12:23:23;98628.06;;;10.13;89.17
55373;BME280;70018;47.838;16.490;2024-03-02T12:25:50;98626.53;;;10.16;89.35
55373;BME280;70018;47.838;16.490;2024-03-02T12:28:17;98619.19;;;10.30;89.60
55373;BME280;70018;47.838;16.490;2024-03-02T12:30:44;98624.47;;;10.50;88.94
55373;BME280;70018;47.838;16.490;2024-03-02T12:33:11;98631.56;;;10.51;88.46
55373;BME280;70018;47.838;16.490;2024-03-02T12:35:40;98615.91;;;10.58;87.98
55373;BME280;70018;47.838;16.490;2024-03-02T12:38:07;98621.50;;;10.69;88.12
55373;BME280;70018;47.838;16.490;2024-03-02T12:40:35;98615.59;;;10.67;88.46
55373;BME280;70018;47.838;16.490;2024-03-02T12:43:05;98620.66;;;10.65;87.78
55373;BME280;70018;47.838;16.490;2024-03-02T12:45:34;98618.34;;;10.67;88.34
55373;BME280;70018;47.838;16.490;2024-03-02T12:48:00;98615.94;;;10.62;88.12
55373;BME280;70018;47.838;16.490;2024-03-02T12:50:28;98609.63;;;10.61;88.85
55373;BME280;70018;47.838;16.490;2024-03-02T12:52:55;98607.38;;;10.74;88.71
55373;BME280;70018;47.838;16.490;2024-03-02T12:55:23;98607.16;;;10.96;88.13
55373;BME280;70018;47.838;16.490;2024-03-02T12:57:51;98611.53;;;11.08;88.21
55373;BME280;70018;47.838;16.490;2024-03-02T13:00:19;98608.06;;;11.18;87.22